createdAt,value
2023-01-29T00:02:40.079Z,5.80
2023-01-29T00:12:45.312Z,5.28
2023-01-29T00:17:48.470Z,6.95
2023-01-29T00:22:51.515Z,6.43
2023-01-29T00:27:54.672Z,6.13
2023-01-29T00:32:58.003Z,9.63
2023-01-29T00:38:02.347Z,6.05
2023-01-29T00:43:23.338Z,8.02
2023-01-29T00:48:26.105Z,8.27
2023-01-29T00:53:29.388Z,11.88
2023-01-29T00:58:36.001Z,7.32
2023-01-29T01:03:42.391Z,3.60
2023-01-29T01:09:04.064Z,7.38
2023-01-29T01:14:07.033Z,5.95
2023-01-29T01:19:10.115Z,4.18
2023-01-29T01:24:13.682Z,10.32
2023-01-29T01:29:16.422Z,7.18
2023-01-29T01:34:20.617Z,4.05
2023-01-29T01:39:24.023Z,10.63
2023-01-29T01:44:55.050Z,12.65
2023-01-29T01:50:04.218Z,5.97
2023-01-29T01:55:09.368Z,12.48
2023-01-29T02:00:16.011Z,11.82
2023-01-29T02:05:37.697Z,6.38
2023-01-29T02:10:47.185Z,10.75
2023-01-29T02:15:50.074Z,8.30
2023-01-29T02:21:15.573Z,6.38
2023-01-29T02:26:50.511Z,8.52
2023-01-29T02:32:17.556Z,7.35
2023-01-29T02:37:32.060Z,10.68
2023-01-29T02:42:45.303Z,4.75
2023-01-29T02:47:50.981Z,9.65
2023-01-29T02:53:03.739Z,9.52
2023-01-29T02:58:26.068Z,10.80
2023-01-29T03:03:35.089Z,6.50
2023-01-29T03:08:43.314Z,7.65
2023-01-29T03:13:55.434Z,7.28
2023-01-29T03:19:06.274Z,9.57
2023-01-29T03:24:29.992Z,6.82
2023-01-29T03:29:55.160Z,8.13
2023-01-29T03:35:05.155Z,8.35
2023-01-29T03:40:10.612Z,7.65
2023-01-29T03:45:28.556Z,8.07
2023-01-29T03:50:53.224Z,10.50
2023-01-29T03:55:59.989Z,6.63
2023-01-29T04:01:20.397Z,7.68
2023-01-29T04:06:30.654Z,6.07
2023-01-29T04:11:45.515Z,11.80
2023-01-29T04:16:54.700Z,7.68
2023-01-29T04:22:24.795Z,5.22
2023-01-29T04:27:32.125Z,3.88
2023-01-29T04:33:08.580Z,7.13
2023-01-29T04:38:34.465Z,7.72
2023-01-29T04:43:46.259Z,9.00
2023-01-29T04:49:39.322Z,9.13
2023-01-29T04:55:03.748Z,7.65
2023-01-29T05:00:36.353Z,4.30
2023-01-29T05:05:42.846Z,5.63
2023-01-29T05:10:50.746Z,3.88
2023-01-29T05:16:05.932Z,2.65
2023-01-29T05:21:09.856Z,4.68
2023-01-29T05:26:30.749Z,11.93
2023-01-29T05:31:33.367Z,6.22
2023-01-29T05:36:36.159Z,4.82
2023-01-29T05:41:38.988Z,6.70
2023-01-29T05:46:41.785Z,12.45
2023-01-29T05:51:44.882Z,8.95
2023-01-29T05:56:47.596Z,8.38
2023-01-29T06:01:50.407Z,7.22
2023-01-29T06:06:53.155Z,14.05
2023-01-29T06:11:55.960Z,6.05
2023-01-29T06:16:58.786Z,5.38
2023-01-29T06:22:01.425Z,5.68
2023-01-29T06:27:04.307Z,7.90
2023-01-29T06:32:07.542Z,7.55
2023-01-29T06:37:10.668Z,10.25
2023-01-29T06:42:14.231Z,9.77
2023-01-29T06:47:16.910Z,15.73
2023-01-29T06:52:19.868Z,12.35
2023-01-29T06:57:22.742Z,15.95
2023-01-29T07:02:25.401Z,23.05
2023-01-29T07:07:28.009Z,10.77
2023-01-29T07:12:30.686Z,18.85
2023-01-29T07:17:33.367Z,12.23
2023-01-29T07:22:36.328Z,6.32
2023-01-29T07:27:39.326Z,10.07
2023-01-29T07:32:42.152Z,11.90
2023-01-29T07:37:44.931Z,11.05
2023-01-29T07:42:47.695Z,11.65
2023-01-29T07:47:54.526Z,12.88
2023-01-29T07:52:57.391Z,7.57
2023-01-29T07:58:02.175Z,11.40
2023-01-29T08:03:14.067Z,14.88
2023-01-29T08:08:17.347Z,15.77
2023-01-29T08:13:20.516Z,13.65
2023-01-29T08:18:23.247Z,24.17
2023-01-29T08:23:26.144Z,11.38
2023-01-29T08:28:29.193Z,27.52
2023-01-29T08:33:39.627Z,12.23
2023-01-29T08:38:47.112Z,3.85
2023-01-29T08:43:49.924Z,9.50
2023-01-29T08:48:52.770Z,6.63
2023-01-29T08:53:55.560Z,11.73
2023-01-29T08:58:59.727Z,11.70
2023-01-29T09:04:02.557Z,12.32
2023-01-29T09:09:05.311Z,7.22
2023-01-29T09:14:10.110Z,8.52
2023-01-29T09:19:14.766Z,11.80
2023-01-29T09:24:17.674Z,12.32
2023-01-29T09:29:20.329Z,13.23
2023-01-29T09:34:24.546Z,7.72
2023-01-29T09:39:29.889Z,7.38
2023-01-29T09:45:04.969Z,13.98
2023-01-29T09:50:15.480Z,6.65
2023-01-29T09:55:32.922Z,12.30
2023-01-29T10:01:02.299Z,11.75
2023-01-29T10:06:08.049Z,10.82
2023-01-29T10:11:22.584Z,6.95
2023-01-29T10:16:45.381Z,14.45
2023-01-29T10:22:06.316Z,11.70
2023-01-29T10:27:20.330Z,14.60
2023-01-29T10:32:27.288Z,14.52
2023-01-29T10:37:46.563Z,20.85
2023-01-29T10:42:57.750Z,10.73
2023-01-29T10:48:28.602Z,11.52
2023-01-29T10:54:16.546Z,10.20
2023-01-29T10:59:31.213Z,8.77
2023-01-29T11:04:35.647Z,11.52
2023-01-29T11:09:52.426Z,12.32
2023-01-29T11:15:15.190Z,9.88
2023-01-29T11:20:36.536Z,15.60
2023-01-29T11:25:39.658Z,8.52
2023-01-29T11:30:43.638Z,15.32
2023-01-29T11:35:47.490Z,12.25
2023-01-29T11:40:50.310Z,10.65
2023-01-29T11:45:58.316Z,10.98
2023-01-29T11:51:01.715Z,11.32
2023-01-29T11:56:26.883Z,14.07
2023-01-29T12:06:49.239Z,10.07
2023-01-29T12:11:52.931Z,10.20
2023-01-29T12:17:04.747Z,22.08
2023-01-29T12:22:36.362Z,12.70
2023-01-29T12:28:22.828Z,11.02
2023-01-29T12:33:49.229Z,9.13
2023-01-29T12:38:54.091Z,9.85
2023-01-29T12:44:04.960Z,9.75
2023-01-29T12:49:16.865Z,9.93
2023-01-29T12:54:48.799Z,12.02
2023-01-29T13:00:07.105Z,10.23
2023-01-29T13:05:38.879Z,9.73
2023-01-29T13:10:46.187Z,11.75
2023-01-29T13:15:50.570Z,14.10
2023-01-29T13:20:53.851Z,12.45
2023-01-29T13:25:57.826Z,16.50
2023-01-29T13:31:41.430Z,12.88
2023-01-29T13:36:47.361Z,13.30
2023-01-29T13:41:51.504Z,13.93
2023-01-29T13:47:03.243Z,16.70
2023-01-29T13:52:30.782Z,11.70
2023-01-29T13:57:56.281Z,14.00
2023-01-29T14:03:01.824Z,15.48
2023-01-29T14:08:27.300Z,13.50
2023-01-29T14:13:36.194Z,16.83
2023-01-29T14:19:01.526Z,11.90
2023-01-29T14:24:19.325Z,12.18
2023-01-29T14:29:34.791Z,9.68
2023-01-29T14:34:52.373Z,7.70
2023-01-29T14:40:20.187Z,11.30
2023-01-29T14:45:35.939Z,20.90
2023-01-29T14:50:41.212Z,20.70
2023-01-29T14:55:49.655Z,19.85
2023-01-29T15:00:57.077Z,10.13
2023-01-29T15:06:01.347Z,12.00
2023-01-29T15:11:30.851Z,11.65
2023-01-29T15:16:59.158Z,8.95
2023-01-29T15:22:23.760Z,10.10
2023-01-29T15:27:26.801Z,14.60
2023-01-29T15:32:37.874Z,19.48
2023-01-29T15:37:40.568Z,23.05
2023-01-29T15:42:47.127Z,35.35
2023-01-29T15:47:51.017Z,32.28
2023-01-29T15:52:55.677Z,25.65
2023-01-29T15:57:59.486Z,36.63
2023-01-29T16:03:16.119Z,28.75
2023-01-29T16:08:21.144Z,31.85
2023-01-29T16:13:30.841Z,25.90
2023-01-29T16:18:41.064Z,32.50
2023-01-29T16:24:02.909Z,25.65
2023-01-29T16:29:09.727Z,30.38
2023-01-29T16:34:29.716Z,32.00
2023-01-29T16:39:39.857Z,21.88
2023-01-29T16:45:02.952Z,32.22
2023-01-29T16:50:40.511Z,39.25
2023-01-29T16:55:47.205Z,28.60
2023-01-29T17:00:57.038Z,29.88
2023-01-29T17:06:08.749Z,22.95
2023-01-29T17:11:23.588Z,25.25
2023-01-29T17:16:32.745Z,20.98
2023-01-29T17:21:35.588Z,21.27
2023-01-29T17:26:39.462Z,21.67
2023-01-29T17:31:43.886Z,19.58
2023-01-29T17:36:47.986Z,22.65
2023-01-29T17:41:53.918Z,22.00
2023-01-29T17:46:58.078Z,30.55
2023-01-29T17:52:01.159Z,24.48
2023-01-29T17:57:04.122Z,28.10
2023-01-29T18:02:08.849Z,24.13
2023-01-29T18:07:35.302Z,31.88
2023-01-29T18:12:38.170Z,15.30
2023-01-29T18:17:41.859Z,20.80
2023-01-29T18:22:44.967Z,24.58
2023-01-29T18:27:47.821Z,24.45
2023-01-29T18:32:50.609Z,25.20
2023-01-29T18:37:53.334Z,23.23
2023-01-29T18:42:56.121Z,22.48
2023-01-29T18:47:59.271Z,18.35
2023-01-29T18:53:04.516Z,19.45
2023-01-29T18:58:26.761Z,24.52
2023-01-29T19:03:30.158Z,26.77
2023-01-29T19:08:35.174Z,20.35
2023-01-29T19:13:38.373Z,15.52
2023-01-29T19:18:41.931Z,9.80
2023-01-29T19:23:45.232Z,22.02
2023-01-29T19:28:48.346Z,22.98
2023-01-29T19:33:51.529Z,15.13
2023-01-29T19:38:54.288Z,16.30
2023-01-29T19:43:57.520Z,17.85
2023-01-29T19:49:01.113Z,15.70
2023-01-29T19:54:04.351Z,18.83
2023-01-29T19:59:07.625Z,14.57
2023-01-29T20:04:10.714Z,20.63
2023-01-29T20:09:13.799Z,19.77
2023-01-29T20:14:16.631Z,19.63
2023-01-29T20:19:20.878Z,14.55
2023-01-29T20:24:24.836Z,15.00
2023-01-29T20:29:27.550Z,20.05
2023-01-29T20:34:31.483Z,17.52
2023-01-29T20:39:34.468Z,16.33
2023-01-29T20:44:37.473Z,19.13
2023-01-29T20:49:40.372Z,11.77
2023-01-29T20:54:44.896Z,19.15
2023-01-29T20:59:48.271Z,15.32
2023-01-29T21:04:51.118Z,17.33
2023-01-29T21:09:53.846Z,21.67
2023-01-29T21:14:56.698Z,19.58
2023-01-29T21:19:59.703Z,20.80
2023-01-29T21:25:02.746Z,17.92
2023-01-29T21:30:06.953Z,27.55
2023-01-29T21:35:10.511Z,14.60
2023-01-29T21:40:13.791Z,28.48
2023-01-29T21:45:16.937Z,22.63
2023-01-29T21:50:19.986Z,16.92
2023-01-29T21:55:22.938Z,16.40
2023-01-29T22:00:29.428Z,20.10
2023-01-29T22:05:34.340Z,18.55
2023-01-29T22:10:37.847Z,19.35
2023-01-29T22:15:40.918Z,16.58
2023-01-29T22:20:44.630Z,17.40
2023-01-29T22:25:47.319Z,15.52
2023-01-29T22:30:50.202Z,18.98
2023-01-29T22:35:56.638Z,21.05
2023-01-29T22:41:01.234Z,17.58
2023-01-29T22:46:10.564Z,16.08
2023-01-29T22:51:14.048Z,16.00
2023-01-29T22:56:18.695Z,19.40
2023-01-29T23:01:24.016Z,16.90
2023-01-29T23:06:27.014Z,27.88
2023-01-29T23:11:29.854Z,18.50
2023-01-29T23:16:32.528Z,19.60
2023-01-29T23:21:35.335Z,17.52
2023-01-29T23:26:56.590Z,21.30
2023-01-29T23:31:59.251Z,18.73
2023-01-29T23:37:01.912Z,21.60
2023-01-29T23:42:05.079Z,17.77
2023-01-29T23:47:08.819Z,20.55
2023-01-29T23:52:11.615Z,15.13
2023-01-29T23:57:14.654Z,17.30
